Time;durP1;ratioP1;P1;durP2;ratioP2;P2;SDS_P1;SDS_P2;PMS_P1;PMS_P2;Temp;Humidity;BMP_temperature;BMP_pressure;BME280_temperature;BME280_humidity;BME280_pressure;Samples;Min_cycle;Max_cycle;Signal;HPM_P1;HPM_P2
2022/03/30 00:00:40;;;;;;;97.30;51.10;;;5.80;99.90;;;;;;2079221;28;20029;-69
2022/03/30 00:01:40;;;;;;;102.82;52.30;;;5.80;99.90;;;;;;2077061;28;20025;-69
2022/03/30 00:02:41;;;;;;;105.63;54.65;;;5.70;99.90;;;;;;2079243;28;20538;-69
2022/03/30 00:03:42;;;;;;;102.85;52.30;;;5.70;99.90;;;;;;2081334;28;20040;-69
2022/03/30 00:04:42;;;;;;;103.45;54.65;;;5.70;99.90;;;;;;2078929;28;20021;-69
2022/03/30 00:05:43;;;;;;;102.28;53.47;;;5.70;99.90;;;;;;2077235;28;20021;-69
2022/03/30 00:06:44;;;;;;;100.63;53.10;;;5.60;99.90;;;;;;2078484;28;20836;-69
2022/03/30 00:07:45;;;;;;;103.47;52.97;;;5.60;99.90;;;;;;2077770;28;20068;-69
2022/03/30 00:08:46;;;;;;;102.45;53.50;;;5.60;99.90;;;;;;2077950;28;20022;-69
2022/03/30 00:09:47;;;;;;;99.93;52.28;;;5.60;99.90;;;;;;2077686;28;20484;-69
2022/03/30 00:10:48;;;;;;;105.85;53.83;;;5.60;99.90;;;;;;2078061;28;20026;-69
2022/03/30 00:11:53;;;;;;;100.10;52.90;;;5.60;99.90;;;;;;2078096;28;20041;-69
2022/03/30 00:12:55;;;;;;;104.30;53.67;;;5.50;99.90;;;;;;2077549;28;20038;-69
2022/03/30 00:13:56;;;;;;;103.25;53.55;;;5.50;99.90;;;;;;2079204;28;20028;-69
2022/03/30 00:14:57;;;;;;;105.82;55.55;;;5.50;99.90;;;;;;2076792;28;20034;-69
2022/03/30 00:15:58;;;;;;;107.47;54.30;;;5.50;99.90;;;;;;2079534;28;20033;-69
2022/03/30 00:16:59;;;;;;;104.90;53.63;;;5.50;99.90;;;;;;2076636;28;20034;-69
2022/03/30 00:17:59;;;;;;;107.13;53.80;;;5.50;99.90;;;;;;2078943;28;20053;-69
2022/03/30 00:19:01;;;;;;;109.57;54.72;;;5.50;99.90;;;;;;2075508;28;20525;-69
2022/03/30 00:20:03;;;;;;;105.45;54.22;;;5.40;99.90;;;;;;2079833;28;20042;-69
2022/03/30 00:21:04;;;;;;;106.75;55.15;;;5.40;99.90;;;;;;2081740;28;20029;-69
2022/03/30 00:22:05;;;;;;;111.60;56.30;;;5.40;99.90;;;;;;2081780;28;20176;-69
2022/03/30 00:23:06;;;;;;;108.88;54.83;;;5.40;99.90;;;;;;2077572;28;20045;-69
2022/03/30 00:24:06;;;;;;;104.70;54.33;;;5.40;99.90;;;;;;2081856;28;20087;-68
2022/03/30 00:25:09;;;;;;;107.25;54.53;;;5.40;99.90;;;;;;2077487;28;20029;-69
2022/03/30 00:26:10;;;;;;;104.63;53.78;;;5.40;99.90;;;;;;2081720;28;20033;-69
2022/03/30 00:27:11;;;;;;;106.50;55.00;;;5.40;99.90;;;;;;2077378;28;20018;-70
2022/03/30 00:28:12;;;;;;;104.55;52.90;;;5.30;99.90;;;;;;2078008;28;20025;-70
2022/03/30 00:29:12;;;;;;;105.10;53.28;;;5.30;99.90;;;;;;2078033;28;20034;-69
2022/03/30 00:30:15;;;;;;;106.80;53.58;;;5.30;99.90;;;;;;2081679;28;20028;-69
2022/03/30 00:31:18;;;;;;;114.72;56.78;;;5.30;99.90;;;;;;2077943;28;20026;-69
2022/03/30 00:32:18;;;;;;;111.90;55.35;;;5.30;99.90;;;;;;2082292;28;20025;-69
2022/03/30 00:33:19;;;;;;;105.60;53.90;;;5.30;99.90;;;;;;2080406;28;20014;-70
2022/03/30 00:34:19;;;;;;;107.80;54.85;;;5.30;99.90;;;;;;2084223;28;20882;-70
2022/03/30 00:35:20;;;;;;;109.38;55.63;;;5.30;99.90;;;;;;2081779;28;20477;-70
2022/03/30 00:36:21;;;;;;;106.50;53.50;;;5.30;99.90;;;;;;2082218;28;20100;-69
2022/03/30 00:37:22;;;;;;;110.85;54.45;;;5.30;99.90;;;;;;2077030;28;20539;-69
2022/03/30 00:38:22;;;;;;;107.07;54.53;;;5.30;99.90;;;;;;2080697;28;20079;-69
2022/03/30 00:39:23;;;;;;;105.93;54.28;;;5.30;99.90;;;;;;2083834;28;20635;-69
2022/03/30 00:40:24;;;;;;;109.03;55.03;;;5.20;99.90;;;;;;2082286;28;20034;-69
2022/03/30 00:41:27;;;;;;;108.82;54.10;;;5.20;99.90;;;;;;2077581;28;20034;-69
2022/03/30 00:42:28;;;;;;;104.60;52.85;;;5.20;99.90;;;;;;2081902;28;20021;-69
2022/03/30 00:43:28;;;;;;;106.15;54.25;;;5.20;99.90;;;;;;2081074;28;20021;-69
2022/03/30 00:44:29;;;;;;;107.70;54.08;;;5.20;99.90;;;;;;2081115;28;20404;-69
2022/03/30 00:45:29;;;;;;;107.57;53.17;;;5.20;99.90;;;;;;2077481;28;20030;-69
2022/03/30 00:46:30;;;;;;;105.82;53.38;;;5.20;99.90;;;;;;2081642;28;20036;-69
2022/03/30 00:47:31;;;;;;;112.97;55.67;;;5.20;99.90;;;;;;2081309;28;20040;-69
2022/03/30 00:48:31;;;;;;;109.35;55.15;;;5.20;99.90;;;;;;2081464;28;20065;-69
2022/03/30 00:49:32;;;;;;;104.07;53.30;;;5.20;99.90;;;;;;2077312;28;20032;-69
2022/03/30 00:50:33;;;;;;;107.00;53.45;;;5.20;99.90;;;;;;2081415;28;20025;-69
2022/03/30 00:51:34;;;;;;;102.03;53.05;;;5.20;99.90;;;;;;2081361;28;20033;-69
2022/03/30 00:52:35;;;;;;;107.40;53.70;;;5.20;99.90;;;;;;2089418;28;20059;-69
2022/03/30 00:53:35;;;;;;;107.32;54.05;;;5.10;99.90;;;;;;2089237;28;20602;-69
2022/03/30 00:54:37;;;;;;;112.13;55.30;;;5.10;99.90;;;;;;2073835;28;20073;-68
2022/03/30 00:55:38;;;;;;;107.68;54.50;;;5.10;99.90;;;;;;2081406;28;20021;-69
2022/03/30 00:56:41;;;;;;;109.65;54.08;;;5.10;99.90;;;;;;2080705;28;20041;-69
2022/03/30 00:57:43;;;;;;;111.80;54.55;;;5.10;99.90;;;;;;2077905;28;20516;-69
2022/03/30 00:58:43;;;;;;;110.13;54.47;;;5.10;99.90;;;;;;2079070;28;20042;-69
2022/03/30 00:59:44;;;;;;;107.10;54.67;;;5.10;99.90;;;;;;2078871;28;20076;-69
2022/03/30 01:00:45;;;;;;;110.70;54.25;;;5.10;99.90;;;;;;2079335;28;20071;-69
2022/03/30 01:01:45;;;;;;;106.47;52.72;;;5.10;99.90;;;;;;2078330;28;20029;-70
2022/03/30 01:02:48;;;;;;;108.32;53.42;;;5.00;99.90;;;;;;2079864;28;20746;-69
2022/03/30 01:03:49;;;;;;;113.50;55.15;;;5.00;99.90;;;;;;2070619;28;20413;-69
2022/03/30 01:04:49;;;;;;;116.47;55.88;;;5.00;99.90;;;;;;2064652;28;20034;-69
2022/03/30 01:05:50;;;;;;;112.90;56.00;;;5.00;99.90;;;;;;2078508;28;20055;-69
2022/03/30 01:06:51;;;;;;;120.70;56.75;;;5.00;99.90;;;;;;2079093;28;20419;-69
2022/03/30 01:07:52;;;;;;;120.47;56.55;;;5.00;99.90;;;;;;2075994;28;20072;-69
2022/03/30 01:08:53;;;;;;;112.97;55.40;;;5.00;99.90;;;;;;2081013;28;20024;-69
2022/03/30 01:09:53;;;;;;;122.63;57.70;;;5.00;99.90;;;;;;2081421;28;20400;-69
2022/03/30 01:10:55;;;;;;;113.82;56.63;;;5.00;99.90;;;;;;2081540;28;20060;-69
2022/03/30 01:11:57;;;;;;;113.45;55.60;;;5.00;99.90;;;;;;2080955;28;20498;-69
2022/03/30 01:13:00;;;;;;;112.35;55.45;;;5.00;99.90;;;;;;2081245;28;20043;-69
2022/03/30 01:14:01;;;;;;;112.45;55.97;;;5.00;99.90;;;;;;2081631;28;20057;-69
2022/03/30 01:15:02;;;;;;;115.18;55.92;;;5.00;99.90;;;;;;2081266;28;20037;-70
2022/03/30 01:16:03;;;;;;;111.00;55.58;;;5.00;99.90;;;;;;2072739;28;20533;-70
2022/03/30 01:17:05;;;;;;;120.03;55.90;;;5.00;99.90;;;;;;2072697;28;20022;-70
2022/03/30 01:18:05;;;;;;;111.72;55.83;;;5.00;99.90;;;;;;2076742;28;20101;-69
2022/03/30 01:19:08;;;;;;;119.38;56.33;;;5.00;99.90;;;;;;2077346;28;20026;-69
2022/03/30 01:20:12;;;;;;;127.43;58.33;;;5.00;99.90;;;;;;2080767;28;20171;-70
2022/03/30 01:21:13;;;;;;;124.97;58.95;;;5.00;99.90;;;;;;2081563;28;20029;-70
2022/03/30 01:22:14;;;;;;;126.47;58.35;;;5.00;99.90;;;;;;2089214;28;20563;-70
2022/03/30 01:23:14;;;;;;;128.18;58.25;;;5.00;99.90;;;;;;2089193;28;20028;-69
2022/03/30 01:24:15;;;;;;;127.20;58.67;;;5.00;99.90;;;;;;2081415;28;20440;-69
2022/03/30 01:25:15;;;;;;;128.57;58.88;;;5.00;99.90;;;;;;2080810;28;20374;-69
2022/03/30 01:26:16;;;;;;;128.95;58.42;;;5.00;99.90;;;;;;2080637;28;20040;-69
2022/03/30 01:27:16;;;;;;;130.70;58.30;;;5.00;99.90;;;;;;2080870;28;20045;-69
2022/03/30 01:28:17;;;;;;;124.63;56.65;;;5.00;99.90;;;;;;2080354;28;20471;-69
2022/03/30 01:33:16;;;;;;;128.02;57.90;;;5.00;99.90;;;;;;2073241;28;20804;-70
2022/03/30 01:34:17;;;;;;;129.43;58.28;;;5.00;99.90;;;;;;2073330;28;20120;-70
2022/03/30 01:35:18;;;;;;;128.00;58.10;;;5.00;99.90;;;;;;2073141;28;20026;-70
2022/03/30 01:36:18;;;;;;;124.10;57.20;;;5.10;99.90;;;;;;2073271;28;20550;-70
2022/03/30 01:37:19;;;;;;;122.70;56.75;;;5.10;99.90;;;;;;2072764;28;20528;-69
2022/03/30 01:38:20;;;;;;;119.45;56.53;;;5.10;99.90;;;;;;2072081;28;20026;-69
2022/03/30 01:39:20;;;;;;;108.85;53.83;;;5.10;99.90;;;;;;2072680;28;20044;-68
2022/03/30 01:40:22;;;;;;;117.25;54.67;;;5.10;99.90;;;;;;2072383;28;20117;-69
2022/03/30 01:41:22;;;;;;;111.40;55.05;;;5.10;99.90;;;;;;2072794;28;20520;-68
2022/03/30 01:42:24;;;;;;;120.30;56.50;;;5.10;99.90;;;;;;2074550;28;20041;-69
2022/03/30 01:43:25;;;;;;;115.68;55.22;;;5.10;99.90;;;;;;2081588;28;20033;-68
2022/03/30 01:44:25;;;;;;;114.72;54.70;;;5.10;99.90;;;;;;2074468;28;20098;-69
2022/03/30 01:45:29;;;;;;;115.97;55.30;;;5.10;99.90;;;;;;2081036;28;20021;-69
2022/03/30 01:46:30;;;;;;;116.95;54.22;;;5.10;99.90;;;;;;2081677;28;20029;-67
2022/03/30 01:47:30;;;;;;;116.97;54.95;;;5.10;99.90;;;;;;2081712;28;20687;-68
2022/03/30 01:48:31;;;;;;;123.93;56.50;;;5.10;99.90;;;;;;2081349;28;20033;-67
2022/03/30 01:49:32;;;;;;;117.50;54.70;;;5.10;99.90;;;;;;2081658;28;20025;-67
2022/03/30 01:50:33;;;;;;;119.25;55.08;;;5.10;99.90;;;;;;2081448;28;20026;-67
2022/03/30 01:51:33;;;;;;;121.85;55.65;;;5.20;99.90;;;;;;2081005;28;20480;-68
2022/03/30 01:52:34;;;;;;;119.32;54.95;;;5.10;99.90;;;;;;2081270;28;20033;-69
2022/03/30 01:53:34;;;;;;;119.03;55.55;;;5.20;99.90;;;;;;2081270;28;20116;-69
2022/03/30 01:54:38;;;;;;;112.03;53.53;;;5.20;99.90;;;;;;2080595;28;20022;-68
2022/03/30 01:55:38;;;;;;;115.97;54.63;;;5.20;99.90;;;;;;2080655;28;20076;-69
2022/03/30 01:56:39;;;;;;;112.40;54.13;;;5.20;99.90;;;;;;2081132;28;20503;-68
2022/03/30 01:57:39;;;;;;;115.05;53.83;;;5.20;99.90;;;;;;2081232;28;20029;-68
2022/03/30 01:58:43;;;;;;;114.35;53.60;;;5.20;99.90;;;;;;2079843;28;20507;-68
2022/03/30 01:59:46;;;;;;;115.00;54.25;;;5.20;99.90;;;;;;2074443;28;20500;-68
2022/03/30 02:00:46;;;;;;;114.20;54.47;;;5.20;99.90;;;;;;2080703;28;20385;-68
2022/03/30 02:01:47;;;;;;;110.18;53.08;;;5.20;99.90;;;;;;2081105;28;20064;-68
2022/03/30 02:02:49;;;;;;;109.85;53.90;;;5.20;99.90;;;;;;2080998;28;20117;-68
2022/03/30 02:03:49;;;;;;;108.35;52.50;;;5.20;99.90;;;;;;2081233;28;20049;-69
2022/03/30 02:04:50;;;;;;;104.93;51.78;;;5.20;99.90;;;;;;2081627;28;20507;-69
2022/03/30 02:05:50;;;;;;;112.22;54.72;;;5.20;99.90;;;;;;2081408;28;20034;-69
2022/03/30 02:06:51;;;;;;;107.43;53.38;;;5.20;99.90;;;;;;2081649;28;20029;-69
2022/03/30 02:07:52;;;;;;;105.60;52.42;;;5.20;99.90;;;;;;2081864;28;20030;-69
2022/03/30 02:08:53;;;;;;;110.13;53.65;;;5.20;99.90;;;;;;2081078;28;20479;-69
2022/03/30 02:09:53;;;;;;;105.03;52.80;;;5.20;99.90;;;;;;2081585;28;20100;-69
2022/03/30 02:10:54;;;;;;;109.90;54.03;;;5.20;99.90;;;;;;2081490;28;20029;-69
2022/03/30 02:11:54;;;;;;;105.28;53.40;;;5.20;99.90;;;;;;2081225;28;20026;-69
2022/03/30 02:12:55;;;;;;;109.55;53.83;;;5.20;99.90;;;;;;2078231;28;20018;-69
2022/03/30 02:13:56;;;;;;;114.82;54.55;;;5.20;99.90;;;;;;2076004;28;20025;-69
2022/03/30 02:14:57;;;;;;;109.68;53.78;;;5.20;99.90;;;;;;2080458;28;20435;-69
2022/03/30 02:15:58;;;;;;;111.50;54.60;;;5.20;99.90;;;;;;2072354;28;20045;-69
2022/03/30 02:16:58;;;;;;;111.22;55.00;;;5.30;99.90;;;;;;2072359;28;20034;-69
2022/03/30 02:17:59;;;;;;;109.53;54.10;;;5.20;99.90;;;;;;2080520;28;20619;-69
2022/03/30 02:19:00;;;;;;;113.88;55.63;;;5.30;99.90;;;;;;2080696;28;20460;-70
2022/03/30 02:20:00;;;;;;;109.78;54.08;;;5.30;99.90;;;;;;2080789;28;20033;-70
2022/03/30 02:21:01;;;;;;;110.15;54.85;;;5.30;99.90;;;;;;2081039;28;20052;-69
2022/03/30 02:22:02;;;;;;;116.47;54.72;;;5.30;99.90;;;;;;2081149;28;20029;-69
2022/03/30 02:23:02;;;;;;;112.38;53.20;;;5.30;99.90;;;;;;2081030;28;20064;-69
2022/03/30 02:24:03;;;;;;;114.07;53.88;;;5.30;99.90;;;;;;2081107;28;20068;-69
2022/03/30 02:25:04;;;;;;;107.22;52.90;;;5.30;99.90;;;;;;2080352;28;20071;-69
2022/03/30 02:26:06;;;;;;;112.63;54.60;;;5.30;99.90;;;;;;2080483;28;20516;-69
2022/03/30 02:27:07;;;;;;;107.43;52.97;;;5.30;99.90;;;;;;2081148;28;20057;-68
2022/03/30 02:28:08;;;;;;;113.55;54.55;;;5.30;99.90;;;;;;2080819;28;20028;-69
2022/03/30 02:29:08;;;;;;;106.53;52.15;;;5.30;99.90;;;;;;2081338;28;20048;-68
2022/03/30 02:30:09;;;;;;;104.43;53.05;;;5.30;99.90;;;;;;2080307;28;20052;-68
2022/03/30 02:31:11;;;;;;;108.82;53.53;;;5.30;99.90;;;;;;2080560;28;20057;-68
2022/03/30 02:32:12;;;;;;;106.93;53.22;;;5.30;99.90;;;;;;2081037;28;20388;-68
2022/03/30 02:33:13;;;;;;;109.97;52.95;;;5.20;99.90;;;;;;2088682;28;20064;-68
2022/03/30 02:34:14;;;;;;;108.45;52.83;;;5.30;99.90;;;;;;2088571;28;20017;-68
2022/03/30 02:35:14;;;;;;;104.97;52.03;;;5.20;99.90;;;;;;2080201;28;20596;-68
2022/03/30 02:36:15;;;;;;;105.18;51.88;;;5.20;99.90;;;;;;2080380;28;20417;-68
2022/03/30 02:37:17;;;;;;;104.85;51.50;;;5.20;99.90;;;;;;2080475;28;20120;-69
2022/03/30 02:38:18;;;;;;;101.85;50.72;;;5.20;99.90;;;;;;2080421;28;20481;-68
2022/03/30 02:39:19;;;;;;;106.60;51.72;;;5.20;99.90;;;;;;2080865;28;20065;-68
2022/03/30 02:40:19;;;;;;;103.55;51.47;;;5.20;99.90;;;;;;2080719;28;20022;-68
2022/03/30 02:41:20;;;;;;;104.13;52.65;;;5.20;99.90;;;;;;2081067;28;20037;-69
2022/03/30 02:42:21;;;;;;;107.75;51.67;;;5.10;99.90;;;;;;2081024;28;20079;-68
2022/03/30 02:43:22;;;;;;;109.47;53.28;;;5.20;99.90;;;;;;2080382;28;20056;-68
2022/03/30 02:44:23;;;;;;;101.65;51.38;;;5.20;99.90;;;;;;2080365;28;20026;-68
2022/03/30 02:45:24;;;;;;;99.55;50.33;;;5.20;99.90;;;;;;2080829;28;20048;-69
2022/03/30 02:46:24;;;;;;;105.30;52.65;;;5.20;99.90;;;;;;2080902;28;20024;-67
2022/03/30 02:48:44;;;;;;;106.70;51.78;;;5.20;99.90;;;;;;2080057;28;20068;-67
2022/03/30 02:49:45;;;;;;;104.00;51.40;;;5.20;99.90;;;;;;2081050;28;20056;-67
2022/03/30 02:50:54;;;;;;;104.95;52.03;;;5.20;99.90;;;;;;2080773;28;20079;-68
2022/03/30 02:51:55;;;;;;;105.85;52.42;;;5.20;99.90;;;;;;2080736;28;20567;-67
2022/03/30 02:52:55;;;;;;;101.22;51.75;;;5.20;99.90;;;;;;2080186;28;20017;-70
2022/03/30 02:53:56;;;;;;;103.10;52.28;;;5.20;99.90;;;;;;2080301;28;20124;-70
2022/03/30 02:54:57;;;;;;;101.15;51.20;;;5.20;99.90;;;;;;2080717;28;20029;-70
2022/03/30 02:55:58;;;;;;;99.47;50.67;;;5.20;99.90;;;;;;2080647;28;20495;-70
2022/03/30 02:56:59;;;;;;;103.63;51.60;;;5.20;99.90;;;;;;2080819;28;20021;-70
2022/03/30 02:58:00;;;;;;;105.43;52.10;;;5.20;99.90;;;;;;2080890;28;20503;-70
2022/03/30 02:59:01;;;;;;;105.78;52.03;;;5.20;99.90;;;;;;2080279;28;20029;-69
2022/03/30 03:00:04;;;;;;;104.60;51.90;;;5.20;99.90;;;;;;2079821;28;20032;-69
2022/03/30 03:01:05;;;;;;;110.07;52.83;;;5.20;99.90;;;;;;2080103;28;20022;-70
2022/03/30 03:02:06;;;;;;;99.90;51.28;;;5.20;99.90;;;;;;2080797;28;20022;-69
2022/03/30 03:03:10;;;;;;;104.35;52.33;;;5.20;99.90;;;;;;2080156;28;20032;-69
2022/03/30 03:04:11;;;;;;;101.55;50.47;;;5.20;99.90;;;;;;2072137;28;20108;-70
2022/03/30 03:05:11;;;;;;;107.32;53.45;;;5.30;99.90;;;;;;2080046;28;20037;-70
2022/03/30 03:06:12;;;;;;;104.30;51.67;;;5.20;99.90;;;;;;2079904;28;20048;-72
2022/03/30 03:07:14;;;;;;;105.50;52.90;;;5.30;99.90;;;;;;2080219;28;20163;-70
2022/03/30 03:08:15;;;;;;;104.55;51.60;;;5.20;99.90;;;;;;2079712;28;20787;-69
2022/03/30 03:09:15;;;;;;;103.22;51.17;;;5.20;99.90;;;;;;2080488;28;20036;-69
2022/03/30 03:10:16;;;;;;;102.50;51.35;;;5.30;99.90;;;;;;2080042;28;20069;-70
2022/03/30 03:11:17;;;;;;;101.15;50.90;;;5.30;99.90;;;;;;2080322;28;20112;-69
2022/03/30 03:12:18;;;;;;;104.53;51.60;;;5.30;99.90;;;;;;2080811;28;20070;-69
2022/03/30 03:13:18;;;;;;;98.45;50.03;;;5.30;99.90;;;;;;2080278;28;20442;-69
2022/03/30 03:14:19;;;;;;;99.82;51.00;;;5.30;99.90;;;;;;2072089;28;20025;-69
2022/03/30 03:15:20;;;;;;;100.03;52.30;;;5.30;99.90;;;;;;2080070;28;20514;-69
2022/03/30 03:16:21;;;;;;;100.00;50.63;;;5.30;99.90;;;;;;2080823;28;20029;-69
2022/03/30 03:17:22;;;;;;;99.13;50.20;;;5.40;99.90;;;;;;2080904;28;20017;-69
2022/03/30 03:18:22;;;;;;;103.20;50.95;;;5.40;99.90;;;;;;2080282;28;20033;-69
2022/03/30 03:19:23;;;;;;;98.75;50.53;;;5.40;99.90;;;;;;2080819;28;20034;-69
2022/03/30 03:20:25;;;;;;;105.18;52.35;;;5.40;99.90;;;;;;2080321;28;20117;-69
2022/03/30 03:21:26;;;;;;;101.85;51.17;;;5.40;99.90;;;;;;2080545;28;20396;-69
2022/03/30 03:22:26;;;;;;;101.03;50.47;;;5.40;99.90;;;;;;2080495;28;20033;-69
2022/03/30 03:23:27;;;;;;;99.40;50.15;;;5.40;99.90;;;;;;2080575;28;20768;-69
2022/03/30 03:24:28;;;;;;;97.28;49.53;;;5.40;99.90;;;;;;2079820;28;20030;-69
2022/03/30 03:25:31;;;;;;;100.90;50.60;;;5.40;99.90;;;;;;2079811;28;20044;-68
2022/03/30 03:26:32;;;;;;;99.25;50.28;;;5.50;99.90;;;;;;2080401;28;20507;-69
2022/03/30 03:27:33;;;;;;;106.60;51.55;;;5.40;99.90;;;;;;2080669;28;20025;-69
2022/03/30 03:28:34;;;;;;;99.75;51.17;;;5.50;99.90;;;;;;2079871;28;20029;-69
2022/03/30 03:29:34;;;;;;;101.75;50.85;;;5.40;99.90;;;;;;2080753;28;20033;-69
2022/03/30 03:30:35;;;;;;;103.60;51.38;;;5.50;99.90;;;;;;2080625;28;20477;-69
2022/03/30 03:31:36;;;;;;;103.38;51.03;;;5.40;99.90;;;;;;2080694;28;20076;-69
2022/03/30 03:32:37;;;;;;;101.68;51.05;;;5.40;99.90;;;;;;2081080;28;20493;-69
2022/03/30 03:33:37;;;;;;;104.22;51.47;;;5.40;99.90;;;;;;2079959;28;20112;-69
2022/03/30 03:34:38;;;;;;;104.20;51.65;;;5.40;99.90;;;;;;2080084;28;20029;-69
2022/03/30 03:35:39;;;;;;;106.80;53.17;;;5.40;99.90;;;;;;2080802;28;20109;-69
2022/03/30 03:36:39;;;;;;;103.30;52.13;;;5.40;99.90;;;;;;2072367;28;20100;-69
2022/03/30 03:37:40;;;;;;;101.78;50.92;;;5.40;99.90;;;;;;2080552;28;20022;-69
2022/03/30 03:38:41;;;;;;;102.80;51.60;;;5.40;99.90;;;;;;2080698;28;20099;-69
2022/03/30 03:39:43;;;;;;;106.88;53.03;;;5.40;99.90;;;;;;2081339;28;20067;-69
2022/03/30 03:40:43;;;;;;;104.30;51.78;;;5.40;99.90;;;;;;2080944;28;20025;-69
2022/03/30 03:41:44;;;;;;;103.82;52.35;;;5.40;99.90;;;;;;2080249;28;20054;-69
2022/03/30 03:42:44;;;;;;;107.80;51.75;;;5.40;99.90;;;;;;2079789;28;20659;-69
2022/03/30 03:43:45;;;;;;;105.47;52.92;;;5.40;99.90;;;;;;2080592;28;20128;-69
2022/03/30 03:44:46;;;;;;;100.57;50.28;;;5.40;99.90;;;;;;2080376;28;20053;-68
2022/03/30 03:45:46;;;;;;;104.47;52.13;;;5.40;99.90;;;;;;2080289;28;20199;-69
2022/03/30 03:46:47;;;;;;;105.38;51.28;;;5.40;99.90;;;;;;2080570;28;20026;-69
2022/03/30 03:47:48;;;;;;;106.13;52.95;;;5.40;99.90;;;;;;2080528;28;20033;-69
2022/03/30 03:48:48;;;;;;;103.38;51.40;;;5.40;99.90;;;;;;2080016;28;20035;-70
2022/03/30 03:49:49;;;;;;;103.40;51.20;;;5.40;99.90;;;;;;2080524;28;20025;-70
2022/03/30 03:50:49;;;;;;;101.38;50.95;;;5.40;99.90;;;;;;2080140;28;20167;-68
2022/03/30 03:51:50;;;;;;;102.75;51.20;;;5.40;99.90;;;;;;2080420;28;20120;-68
2022/03/30 03:52:51;;;;;;;105.35;53.10;;;5.40;99.90;;;;;;2080459;28;20061;-68
2022/03/30 03:53:52;;;;;;;101.68;50.88;;;5.40;99.90;;;;;;2088107;28;20488;-69
2022/03/30 03:54:52;;;;;;;102.68;50.97;;;5.40;99.90;;;;;;2087969;28;20025;-69
2022/03/30 03:55:53;;;;;;;107.80;52.10;;;5.40;99.90;;;;;;2089768;28;20033;-69
2022/03/30 03:56:54;;;;;;;103.63;51.53;;;5.40;99.90;;;;;;2082124;28;20049;-69
2022/03/30 03:57:54;;;;;;;108.18;52.00;;;5.40;99.90;;;;;;2081462;28;20108;-69
2022/03/30 03:58:55;;;;;;;104.30;51.88;;;5.40;99.90;;;;;;2081047;28;20408;-69
2022/03/30 03:59:56;;;;;;;102.07;50.22;;;5.50;99.90;;;;;;2081437;28;20190;-69
2022/03/30 04:00:57;;;;;;;100.45;49.88;;;5.50;99.90;;;;;;2081632;28;20517;-68
2022/03/30 04:01:58;;;;;;;103.07;51.30;;;5.50;99.90;;;;;;2082206;28;20029;-69
2022/03/30 04:02:59;;;;;;;105.80;51.88;;;5.50;99.90;;;;;;2082101;28;20079;-68
2022/03/30 04:03:59;;;;;;;102.30;51.53;;;5.50;99.90;;;;;;2081552;28;20025;-68
2022/03/30 04:05:00;;;;;;;103.50;51.80;;;5.50;99.90;;;;;;2081605;28;20096;-68
2022/03/30 04:06:00;;;;;;;103.13;52.10;;;5.50;99.90;;;;;;2082041;28;20030;-68
2022/03/30 04:07:01;;;;;;;102.32;51.83;;;5.50;99.90;;;;;;2081709;28;20036;-69
2022/03/30 04:08:02;;;;;;;103.03;51.10;;;5.50;99.90;;;;;;2081735;28;20025;-68
2022/03/30 04:09:03;;;;;;;102.78;50.88;;;5.60;99.90;;;;;;2082030;28;20040;-69
2022/03/30 04:10:06;;;;;;;99.57;50.60;;;5.50;99.90;;;;;;2082103;28;20053;-68
2022/03/30 04:11:07;;;;;;;106.10;53.05;;;5.60;99.90;;;;;;2082373;28;20017;-68
2022/03/30 04:12:08;;;;;;;108.40;52.88;;;5.60;99.90;;;;;;2082303;28;20466;-68
2022/03/30 04:13:09;;;;;;;103.15;51.83;;;5.60;99.90;;;;;;2082438;28;20021;-68
2022/03/30 04:14:10;;;;;;;99.80;49.45;;;5.60;99.90;;;;;;2082458;28;20018;-68
2022/03/30 04:15:10;;;;;;;103.38;52.08;;;5.60;99.90;;;;;;2082000;28;20040;-68
2022/03/30 04:16:11;;;;;;;103.80;51.53;;;5.60;99.90;;;;;;2081331;28;20034;-70
2022/03/30 04:17:12;;;;;;;99.18;49.47;;;5.60;99.90;;;;;;2081806;28;20536;-69
2022/03/30 04:18:14;;;;;;;102.13;50.83;;;5.60;99.90;;;;;;2081867;28;20029;-69
2022/03/30 04:19:15;;;;;;;103.20;50.85;;;5.60;99.90;;;;;;2082405;28;20148;-68
2022/03/30 04:20:16;;;;;;;103.00;52.53;;;5.60;99.90;;;;;;2082089;28;20108;-68
2022/03/30 04:21:16;;;;;;;103.70;51.38;;;5.60;99.90;;;;;;2082213;28;20033;-69
2022/03/30 04:22:17;;;;;;;104.65;52.05;;;5.60;99.90;;;;;;2081696;28;20037;-69
2022/03/30 04:23:18;;;;;;;102.47;51.55;;;5.60;99.90;;;;;;2081798;28;20100;-67
2022/03/30 04:24:18;;;;;;;104.18;51.75;;;5.70;99.90;;;;;;2082131;28;20037;-73
2022/03/30 04:25:19;;;;;;;101.85;51.20;;;5.60;99.90;;;;;;2082242;28;20025;-71
2022/03/30 04:26:22;;;;;;;104.18;51.25;;;5.60;99.90;;;;;;2081573;28;20037;-69
2022/03/30 04:27:23;;;;;;;101.90;50.50;;;5.60;99.90;;;;;;2081560;28;20568;-68
2022/03/30 04:28:24;;;;;;;100.20;51.22;;;5.60;99.90;;;;;;2072878;28;20109;-69
2022/03/30 04:29:25;;;;;;;103.25;51.00;;;5.60;99.90;;;;;;2073396;28;20032;-68
2022/03/30 04:30:25;;;;;;;101.15;51.63;;;5.60;99.90;;;;;;2081521;28;20037;-68
2022/03/30 04:31:26;;;;;;;100.13;49.50;;;5.60;99.90;;;;;;2081603;28;20061;-68
2022/03/30 04:32:27;;;;;;;100.80;49.72;;;5.60;99.90;;;;;;2081634;28;20022;-68
2022/03/30 04:33:27;;;;;;;102.35;51.35;;;5.60;99.90;;;;;;2081726;28;20040;-68
2022/03/30 04:34:28;;;;;;;102.25;51.50;;;5.60;99.90;;;;;;2081644;28;20437;-68
2022/03/30 04:35:29;;;;;;;102.47;51.22;;;5.60;99.90;;;;;;2081865;28;20104;-68
2022/03/30 04:36:30;;;;;;;105.15;52.05;;;5.60;99.90;;;;;;2082128;28;20526;-68
2022/03/30 04:37:30;;;;;;;103.47;51.78;;;5.70;99.90;;;;;;2081518;28;20493;-68
2022/03/30 04:38:32;;;;;;;105.95;51.25;;;5.70;99.90;;;;;;2080889;28;20022;-68
2022/03/30 04:39:33;;;;;;;105.15;52.05;;;5.70;99.90;;;;;;2081989;28;20512;-68
2022/03/30 04:40:34;;;;;;;101.55;51.55;;;5.70;99.90;;;;;;2089303;28;20029;-68
2022/03/30 04:41:34;;;;;;;104.45;51.47;;;5.70;99.90;;;;;;2089465;28;20476;-69
2022/03/30 04:42:35;;;;;;;102.78;51.25;;;5.70;99.90;;;;;;2081813;28;20061;-69
2022/03/30 04:43:36;;;;;;;104.72;51.65;;;5.70;99.90;;;;;;2081700;28;20030;-68
2022/03/30 04:44:36;;;;;;;103.85;51.72;;;5.70;99.90;;;;;;2081753;28;20040;-68
2022/03/30 04:45:37;;;;;;;109.88;53.17;;;5.70;99.90;;;;;;2081746;28;20028;-68
2022/03/30 04:46:38;;;;;;;108.32;52.97;;;5.70;99.90;;;;;;2081864;28;20025;-67
2022/03/30 04:47:38;;;;;;;102.70;50.95;;;5.70;99.90;;;;;;2081116;28;20037;-68
2022/03/30 04:48:39;;;;;;;97.63;50.38;;;5.70;99.90;;;;;;2072512;28;20025;-68
2022/03/30 04:49:40;;;;;;;103.43;51.35;;;5.60;99.90;;;;;;2081297;28;20029;-69
2022/03/30 04:50:40;;;;;;;107.05;52.45;;;5.70;99.90;;;;;;2088983;28;20032;-69
2022/03/30 04:51:41;;;;;;;102.63;51.85;;;5.70;99.90;;;;;;2089521;28;20048;-68
2022/03/30 04:52:42;;;;;;;104.00;51.85;;;5.70;99.90;;;;;;2089590;28;20029;-68
2022/03/30 04:53:42;;;;;;;104.88;52.40;;;5.70;99.90;;;;;;2081857;28;20064;-67
2022/03/30 04:54:43;;;;;;;107.10;52.15;;;5.70;99.90;;;;;;2081631;28;20060;-69
2022/03/30 04:55:44;;;;;;;102.90;52.05;;;5.70;99.90;;;;;;2081027;28;20022;-68
2022/03/30 04:56:45;;;;;;;102.72;52.05;;;5.70;99.90;;;;;;2072850;28;20058;-68
2022/03/30 04:57:46;;;;;;;101.40;51.63;;;5.70;99.90;;;;;;2081027;28;20036;-69
2022/03/30 04:58:46;;;;;;;103.97;52.53;;;5.70;99.90;;;;;;2081342;28;20116;-69
2022/03/30 04:59:47;;;;;;;102.28;51.75;;;5.70;99.90;;;;;;2081878;28;20159;-70
2022/03/30 05:00:48;;;;;;;103.03;52.33;;;5.70;99.90;;;;;;2078635;28;20444;-70
2022/03/30 05:01:49;;;;;;;101.60;52.60;;;5.70;99.90;;;;;;2081800;28;20397;-68
2022/03/30 05:02:49;;;;;;;102.85;51.95;;;5.70;99.90;;;;;;2081076;28;20030;-67
2022/03/30 05:03:50;;;;;;;101.43;52.22;;;5.70;99.90;;;;;;2072708;28;20026;-70
2022/03/30 05:04:50;;;;;;;101.47;50.40;;;5.70;99.90;;;;;;2080991;28;20021;-69
2022/03/30 05:05:51;;;;;;;96.95;48.92;;;5.70;99.90;;;;;;2080872;28;20032;-69
2022/03/30 05:06:52;;;;;;;96.93;49.13;;;5.70;99.90;;;;;;2079985;28;20057;-68
2022/03/30 05:07:54;;;;;;;96.65;48.90;;;5.70;99.90;;;;;;2080959;28;20037;-68
2022/03/30 05:08:55;;;;;;;107.90;53.00;;;5.80;99.90;;;;;;2080607;28;20065;-68
2022/03/30 05:09:57;;;;;;;106.45;53.10;;;5.80;99.90;;;;;;2081632;28;20026;-69
2022/03/30 05:10:58;;;;;;;103.38;51.45;;;5.80;99.90;;;;;;2081600;28;20373;-68
2022/03/30 05:11:59;;;;;;;98.45;50.60;;;5.80;99.90;;;;;;2081331;28;20022;-69
2022/03/30 05:13:00;;;;;;;92.70;46.88;;;5.80;99.90;;;;;;2081510;28;20485;-69
2022/03/30 05:14:00;;;;;;;88.90;47.72;;;5.80;99.90;;;;;;2081533;28;20021;-69
2022/03/30 05:15:01;;;;;;;93.80;48.88;;;5.80;99.90;;;;;;2080676;28;20088;-69